sensor_id;sensor_type;location;lat;lon;timestamp;noise_LAeq;noise_LA_min;noise_LA_max;noise_LA01;noise_LA95
68599;Laerm;18038;50.166;18.908;2023-08-06T00:06:46;38.72;34.49;49.59;;
68599;Laerm;18038;50.166;18.908;2023-08-06T00:09:57;41.32;34.28;57.31;;
68599;Laerm;18038;50.166;18.908;2023-08-06T00:13:08;36.97;34.61;50.10;;
68599;Laerm;18038;50.166;18.908;2023-08-06T00:16:16;43.20;34.36;54.62;;
68599;Laerm;18038;50.166;18.908;2023-08-06T00:19:24;45.79;35.28;70.88;;
68599;Laerm;18038;50.166;18.908;2023-08-06T00:22:32;44.83;35.15;57.58;;
68599;Laerm;18038;50.166;18.908;2023-08-06T00:25:42;44.06;34.81;58.98;;
68599;Laerm;18038;50.166;18.908;2023-08-06T00:28:51;44.88;34.88;56.45;;
68599;Laerm;18038;50.166;18.908;2023-08-06T00:31:58;37.10;35.01;46.92;;
68599;Laerm;18038;50.166;18.908;2023-08-06T00:35:09;43.13;35.19;55.89;;
68599;Laerm;18038;50.166;18.908;2023-08-06T00:38:18;40.79;35.34;54.39;;
68599;Laerm;18038;50.166;18.908;2023-08-06T00:41:29;41.06;35.05;57.75;;
68599;Laerm;18038;50.166;18.908;2023-08-06T00:44:37;41.65;34.89;58.08;;
68599;Laerm;18038;50.166;18.908;2023-08-06T00:47:47;41.67;34.37;56.79;;
68599;Laerm;18038;50.166;18.908;2023-08-06T00:50:55;39.34;34.24;53.83;;
68599;Laerm;18038;50.166;18.908;2023-08-06T00:54:14;44.16;34.25;60.98;;
68599;Laerm;18038;50.166;18.908;2023-08-06T00:57:25;35.82;34.53;41.92;;
68599;Laerm;18038;50.166;18.908;2023-08-06T01:00:34;40.96;34.56;57.98;;
68599;Laerm;18038;50.166;18.908;2023-08-06T01:03:42;41.86;34.45;56.73;;
68599;Laerm;18038;50.166;18.908;2023-08-06T01:07:08;38.10;34.73;51.87;;
68599;Laerm;18038;50.166;18.908;2023-08-06T01:10:40;38.14;34.40;52.71;;
68599;Laerm;18038;50.166;18.908;2023-08-06T01:14:08;39.99;34.27;56.58;;
68599;Laerm;18038;50.166;18.908;2023-08-06T01:17:16;40.97;34.39;54.17;;
68599;Laerm;18038;50.166;18.908;2023-08-06T01:20:31;42.66;34.06;55.52;;
68599;Laerm;18038;50.166;18.908;2023-08-06T01:23:41;39.10;34.15;55.67;;
68599;Laerm;18038;50.166;18.908;2023-08-06T01:27:02;38.66;34.10;54.48;;
68599;Laerm;18038;50.166;18.908;2023-08-06T01:30:16;41.18;34.15;59.05;;
68599;Laerm;18038;50.166;18.908;2023-08-06T01:33:34;34.90;34.06;37.38;;
68599;Laerm;18038;50.166;18.908;2023-08-06T01:36:48;34.98;34.10;38.59;;
68599;Laerm;18038;50.166;18.908;2023-08-06T01:39:56;34.90;34.09;46.13;;
68599;Laerm;18038;50.166;18.908;2023-08-06T01:43:04;40.75;34.01;53.41;;
68599;Laerm;18038;50.166;18.908;2023-08-06T01:46:16;41.04;34.08;55.47;;
68599;Laerm;18038;50.166;18.908;2023-08-06T01:49:24;34.86;34.06;43.27;;
68599;Laerm;18038;50.166;18.908;2023-08-06T01:52:35;41.13;34.16;58.18;;
68599;Laerm;18038;50.166;18.908;2023-08-06T01:55:47;42.84;34.19;57.80;;
68599;Laerm;18038;50.166;18.908;2023-08-06T01:58:56;40.39;34.13;56.49;;
68599;Laerm;18038;50.166;18.908;2023-08-06T02:02:08;41.70;34.11;58.85;;
68599;Laerm;18038;50.166;18.908;2023-08-06T02:05:16;36.92;34.02;50.18;;
68599;Laerm;18038;50.166;18.908;2023-08-06T02:08:27;40.38;33.98;54.03;;
68599;Laerm;18038;50.166;18.908;2023-08-06T02:11:35;35.17;33.96;46.73;;
68599;Laerm;18038;50.166;18.908;2023-08-06T02:14:46;41.09;33.94;57.61;;
68599;Laerm;18038;50.166;18.908;2023-08-06T02:17:55;34.74;33.97;38.28;;
68599;Laerm;18038;50.166;18.908;2023-08-06T02:21:03;38.29;33.97;53.99;;
68599;Laerm;18038;50.166;18.908;2023-08-06T02:24:14;35.03;33.94;43.86;;
68599;Laerm;18038;50.166;18.908;2023-08-06T02:27:21;40.98;34.02;55.33;;
68599;Laerm;18038;50.166;18.908;2023-08-06T02:30:30;39.68;33.97;56.94;;
68599;Laerm;18038;50.166;18.908;2023-08-06T02:33:37;34.85;34.01;39.39;;
68599;Laerm;18038;50.166;18.908;2023-08-06T02:36:45;42.71;34.22;55.84;;
68599;Laerm;18038;50.166;18.908;2023-08-06T02:39:55;38.45;34.07;56.24;;
68599;Laerm;18038;50.166;18.908;2023-08-06T02:43:04;34.82;33.94;40.89;;
68599;Laerm;18038;50.166;18.908;2023-08-06T02:46:12;35.00;34.05;39.22;;
68599;Laerm;18038;50.166;18.908;2023-08-06T02:49:20;41.77;33.95;54.67;;
68599;Laerm;18038;50.166;18.908;2023-08-06T02:52:28;37.72;33.97;52.17;;
68599;Laerm;18038;50.166;18.908;2023-08-06T02:55:46;43.35;34.24;58.15;;
68599;Laerm;18038;50.166;18.908;2023-08-06T02:58:58;36.17;34.22;47.54;;
68599;Laerm;18038;50.166;18.908;2023-08-06T03:02:19;43.05;34.13;56.11;;
68599;Laerm;18038;50.166;18.908;2023-08-06T03:05:34;39.14;34.16;54.16;;
68599;Laerm;18038;50.166;18.908;2023-08-06T03:08:42;35.51;34.14;44.40;;
68599;Laerm;18038;50.166;18.908;2023-08-06T03:11:53;43.52;34.29;55.64;;
68599;Laerm;18038;50.166;18.908;2023-08-06T03:15:01;39.65;34.11;54.34;;
68599;Laerm;18038;50.166;18.908;2023-08-06T03:18:11;41.01;34.24;58.98;;
68599;Laerm;18038;50.166;18.908;2023-08-06T03:21:20;41.25;34.36;53.83;;
68599;Laerm;18038;50.166;18.908;2023-08-06T03:24:31;44.95;34.50;59.80;;
68599;Laerm;18038;50.166;18.908;2023-08-06T03:27:42;37.07;34.02;48.86;;
68599;Laerm;18038;50.166;18.908;2023-08-06T03:30:59;42.87;34.20;57.96;;
68599;Laerm;18038;50.166;18.908;2023-08-06T03:34:15;42.70;34.34;55.45;;
68599;Laerm;18038;50.166;18.908;2023-08-06T03:37:24;41.70;34.51;53.86;;
68599;Laerm;18038;50.166;18.908;2023-08-06T03:40:35;43.10;34.21;62.61;;
68599;Laerm;18038;50.166;18.908;2023-08-06T03:43:45;41.98;34.32;49.85;;
68599;Laerm;18038;50.166;18.908;2023-08-06T03:47:00;40.93;34.49;52.29;;
68599;Laerm;18038;50.166;18.908;2023-08-06T03:50:08;44.33;34.62;58.04;;
68599;Laerm;18038;50.166;18.908;2023-08-06T03:53:16;43.65;34.52;55.69;;
68599;Laerm;18038;50.166;18.908;2023-08-06T03:56:24;39.81;34.43;53.40;;
68599;Laerm;18038;50.166;18.908;2023-08-06T03:59:35;44.39;34.79;58.26;;
68599;Laerm;18038;50.166;18.908;2023-08-06T04:02:43;42.96;34.53;56.87;;
68599;Laerm;18038;50.166;18.908;2023-08-06T04:05:52;40.96;34.81;53.10;;
68599;Laerm;18038;50.166;18.908;2023-08-06T04:08:59;44.23;34.69;56.65;;
68599;Laerm;18038;50.166;18.908;2023-08-06T04:12:08;36.66;34.75;50.38;;
68599;Laerm;18038;50.166;18.908;2023-08-06T04:15:18;45.75;35.41;59.29;;
68599;Laerm;18038;50.166;18.908;2023-08-06T04:18:26;43.93;36.32;65.01;;
68599;Laerm;18038;50.166;18.908;2023-08-06T04:21:33;42.70;35.62;53.49;;
68599;Laerm;18038;50.166;18.908;2023-08-06T04:24:54;46.28;36.89;60.64;;
68599;Laerm;18038;50.166;18.908;2023-08-06T04:28:07;50.32;42.72;57.46;;
68599;Laerm;18038;50.166;18.908;2023-08-06T04:31:17;48.86;42.35;61.80;;
68599;Laerm;18038;50.166;18.908;2023-08-06T04:34:25;47.17;41.50;58.52;;
68599;Laerm;18038;50.166;18.908;2023-08-06T04:37:33;46.41;41.42;58.26;;
68599;Laerm;18038;50.166;18.908;2023-08-06T04:40:41;48.28;43.62;57.43;;
68599;Laerm;18038;50.166;18.908;2023-08-06T04:43:50;48.59;39.80;58.49;;
68599;Laerm;18038;50.166;18.908;2023-08-06T04:47:02;47.07;37.64;59.96;;
68599;Laerm;18038;50.166;18.908;2023-08-06T04:50:10;48.48;37.95;60.33;;
68599;Laerm;18038;50.166;18.908;2023-08-06T04:53:17;50.42;39.03;60.44;;
68599;Laerm;18038;50.166;18.908;2023-08-06T04:56:26;48.83;41.41;58.15;;
68599;Laerm;18038;50.166;18.908;2023-08-06T04:59:34;49.15;41.88;59.21;;
68599;Laerm;18038;50.166;18.908;2023-08-06T05:02:45;50.10;42.50;61.45;;
68599;Laerm;18038;50.166;18.908;2023-08-06T05:05:52;48.89;44.26;59.05;;
68599;Laerm;18038;50.166;18.908;2023-08-06T05:09:08;51.19;47.16;61.46;;
68599;Laerm;18038;50.166;18.908;2023-08-06T05:12:15;54.35;49.19;62.53;;
68599;Laerm;18038;50.166;18.908;2023-08-06T05:15:23;54.80;50.70;61.13;;
68599;Laerm;18038;50.166;18.908;2023-08-06T05:18:39;53.49;49.63;59.32;;
68599;Laerm;18038;50.166;18.908;2023-08-06T05:21:53;56.37;51.89;62.25;;
68599;Laerm;18038;50.166;18.908;2023-08-06T05:25:08;54.04;48.55;60.38;;
68599;Laerm;18038;50.166;18.908;2023-08-06T05:28:16;52.64;48.79;60.56;;
68599;Laerm;18038;50.166;18.908;2023-08-06T05:31:24;51.12;45.51;59.53;;
68599;Laerm;18038;50.166;18.908;2023-08-06T10:59:02;52.81;41.19;74.13;;
68599;Laerm;18038;50.166;18.908;2023-08-06T11:02:11;55.54;49.61;63.30;;
68599;Laerm;18038;50.166;18.908;2023-08-06T11:05:18;55.24;48.50;61.06;;
68599;Laerm;18038;50.166;18.908;2023-08-06T11:08:27;54.64;48.44;60.54;;
68599;Laerm;18038;50.166;18.908;2023-08-06T11:11:35;55.24;47.22;61.61;;
68599;Laerm;18038;50.166;18.908;2023-08-06T11:14:50;54.27;46.68;61.76;;
68599;Laerm;18038;50.166;18.908;2023-08-06T11:17:58;55.10;46.48;63.05;;
68599;Laerm;18038;50.166;18.908;2023-08-06T11:21:08;52.59;46.70;61.24;;
68599;Laerm;18038;50.166;18.908;2023-08-06T11:24:16;54.96;49.51;61.76;;
68599;Laerm;18038;50.166;18.908;2023-08-06T11:27:27;55.25;51.83;61.94;;
68599;Laerm;18038;50.166;18.908;2023-08-06T11:30:38;55.81;52.16;61.62;;
68599;Laerm;18038;50.166;18.908;2023-08-06T11:33:46;56.26;51.44;61.61;;
68599;Laerm;18038;50.166;18.908;2023-08-06T11:36:57;55.08;49.37;61.92;;
68599;Laerm;18038;50.166;18.908;2023-08-06T11:40:09;53.34;47.45;61.61;;
68599;Laerm;18038;50.166;18.908;2023-08-06T11:43:19;56.32;48.63;64.37;;
68599;Laerm;18038;50.166;18.908;2023-08-06T11:46:50;56.40;48.56;65.91;;
68599;Laerm;18038;50.166;18.908;2023-08-06T11:50:00;54.87;46.75;62.99;;
68599;Laerm;18038;50.166;18.908;2023-08-06T11:53:14;54.47;45.83;62.12;;
68599;Laerm;18038;50.166;18.908;2023-08-06T11:56:24;53.20;45.50;62.86;;
68599;Laerm;18038;50.166;18.908;2023-08-06T11:59:33;54.64;44.84;67.11;;
68599;Laerm;18038;50.166;18.908;2023-08-06T12:02:46;54.81;44.07;63.27;;
68599;Laerm;18038;50.166;18.908;2023-08-06T12:05:56;53.39;42.06;66.74;;
68599;Laerm;18038;50.166;18.908;2023-08-06T12:09:03;51.96;43.34;62.32;;
68599;Laerm;18038;50.166;18.908;2023-08-06T12:12:11;52.46;44.66;61.35;;
68599;Laerm;18038;50.166;18.908;2023-08-06T12:15:19;54.21;46.49;62.00;;
68599;Laerm;18038;50.166;18.908;2023-08-06T12:18:30;53.93;46.53;62.86;;
68599;Laerm;18038;50.166;18.908;2023-08-06T12:21:37;53.80;45.94;60.41;;
68599;Laerm;18038;50.166;18.908;2023-08-06T12:24:47;52.42;45.54;60.90;;
68599;Laerm;18038;50.166;18.908;2023-08-06T12:27:54;55.14;46.25;64.00;;
68599;Laerm;18038;50.166;18.908;2023-08-06T12:31:02;54.42;45.55;64.67;;
68599;Laerm;18038;50.166;18.908;2023-08-06T12:34:12;53.67;45.12;61.75;;
68599;Laerm;18038;50.166;18.908;2023-08-06T12:40:32;52.62;42.89;62.77;;
68599;Laerm;18038;50.166;18.908;2023-08-06T12:43:52;53.26;43.17;65.10;;
68599;Laerm;18038;50.166;18.908;2023-08-06T12:47:07;53.97;43.47;61.41;;
68599;Laerm;18038;50.166;18.908;2023-08-06T12:50:25;52.92;42.76;61.19;;
68599;Laerm;18038;50.166;18.908;2023-08-06T12:53:32;53.46;43.50;67.08;;
68599;Laerm;18038;50.166;18.908;2023-08-06T12:56:43;53.03;43.06;62.23;;
68599;Laerm;18038;50.166;18.908;2023-08-06T12:59:50;51.70;42.82;61.18;;
68599;Laerm;18038;50.166;18.908;2023-08-06T13:02:59;52.21;44.11;61.20;;
68599;Laerm;18038;50.166;18.908;2023-08-06T13:06:06;54.54;46.88;60.65;;
68599;Laerm;18038;50.166;18.908;2023-08-06T13:09:16;53.26;45.05;60.84;;
68599;Laerm;18038;50.166;18.908;2023-08-06T13:12:26;53.63;44.24;62.82;;
68599;Laerm;18038;50.166;18.908;2023-08-06T16:31:37;53.48;42.23;72.41;;
68599;Laerm;18038;50.166;18.908;2023-08-06T16:34:46;48.03;43.15;57.46;;
68599;Laerm;18038;50.166;18.908;2023-08-06T16:37:54;46.30;40.26;60.94;;
68599;Laerm;18038;50.166;18.908;2023-08-06T16:41:03;45.45;40.06;56.67;;
68599;Laerm;18038;50.166;18.908;2023-08-06T16:44:11;46.07;41.44;55.64;;
68599;Laerm;18038;50.166;18.908;2023-08-06T16:47:22;44.79;40.35;54.74;;
68599;Laerm;18038;50.166;18.908;2023-08-06T16:50:29;47.66;40.62;63.67;;
68599;Laerm;18038;50.166;18.908;2023-08-06T20:11:38;46.46;36.85;57.83;;
68599;Laerm;18038;50.166;18.908;2023-08-06T20:14:47;44.87;35.93;64.04;;
68599;Laerm;18038;50.166;18.908;2023-08-06T20:17:54;42.25;35.66;56.12;;
68599;Laerm;18038;50.166;18.908;2023-08-06T20:21:03;43.38;34.98;52.63;;
68599;Laerm;18038;50.166;18.908;2023-08-06T20:24:11;42.93;35.93;50.80;;
68599;Laerm;18038;50.166;18.908;2023-08-06T20:27:21;43.06;35.85;58.53;;
68599;Laerm;18038;50.166;18.908;2023-08-06T20:30:30;42.80;35.84;52.12;;
68599;Laerm;18038;50.166;18.908;2023-08-06T20:33:38;42.42;35.67;51.09;;
68599;Laerm;18038;50.166;18.908;2023-08-06T20:36:45;43.06;35.43;57.45;;
68599;Laerm;18038;50.166;18.908;2023-08-06T20:39:53;44.99;35.78;67.53;;
68599;Laerm;18038;50.166;18.908;2023-08-06T20:43:03;41.30;35.63;48.63;;
68599;Laerm;18038;50.166;18.908;2023-08-06T20:46:17;41.85;35.90;53.02;;
68599;Laerm;18038;50.166;18.908;2023-08-06T20:49:25;40.90;35.28;54.57;;
68599;Laerm;18038;50.166;18.908;2023-08-06T20:52:33;39.30;34.77;51.69;;
68599;Laerm;18038;50.166;18.908;2023-08-06T20:55:40;38.93;34.48;48.62;;
68599;Laerm;18038;50.166;18.908;2023-08-06T20:58:51;39.30;34.41;56.19;;
68599;Laerm;18038;50.166;18.908;2023-08-06T21:01:58;39.21;34.59;49.24;;
68599;Laerm;18038;50.166;18.908;2023-08-06T21:05:07;37.15;34.30;42.96;;
68599;Laerm;18038;50.166;18.908;2023-08-06T21:08:15;36.67;34.17;46.71;;
68599;Laerm;18038;50.166;18.908;2023-08-06T21:11:23;48.59;34.04;78.60;;
68599;Laerm;18038;50.166;18.908;2023-08-06T21:14:33;57.04;33.78;79.71;;
68599;Laerm;18038;50.166;18.908;2023-08-06T21:17:41;65.92;33.72;82.10;;
68599;Laerm;18038;50.166;18.908;2023-08-06T21:20:52;70.47;33.32;83.28;;
68599;Laerm;18038;50.166;18.908;2023-08-06T21:24:00;67.01;33.62;82.05;;
68599;Laerm;18038;50.166;18.908;2023-08-06T21:27:17;69.98;33.68;82.56;;
68599;Laerm;18038;50.166;18.908;2023-08-06T21:30:30;63.89;33.38;82.81;;
68599;Laerm;18038;50.166;18.908;2023-08-06T21:33:40;55.28;47.22;75.54;;
68599;Laerm;18038;50.166;18.908;2023-08-06T21:36:52;58.86;34.15;77.64;;
68599;Laerm;18038;50.166;18.908;2023-08-06T21:40:00;61.37;34.89;78.35;;
68599;Laerm;18038;50.166;18.908;2023-08-06T21:43:08;53.14;49.02;58.59;;
68599;Laerm;18038;50.166;18.908;2023-08-06T21:46:19;47.18;34.40;53.79;;
68599;Laerm;18038;50.166;18.908;2023-08-06T21:49:28;35.34;34.51;38.89;;
68599;Laerm;18038;50.166;18.908;2023-08-06T21:52:35;35.24;34.43;36.66;;
68599;Laerm;18038;50.166;18.908;2023-08-06T21:55:43;35.58;34.57;52.17;;
68599;Laerm;18038;50.166;18.908;2023-08-06T21:58:51;39.72;34.53;59.20;;
68599;Laerm;18038;50.166;18.908;2023-08-06T22:02:06;47.00;34.63;61.26;;
68599;Laerm;18038;50.166;18.908;2023-08-06T22:05:13;35.45;34.50;41.69;;
68599;Laerm;18038;50.166;18.908;2023-08-06T22:08:21;35.40;34.42;40.72;;
68599;Laerm;18038;50.166;18.908;2023-08-06T22:11:28;39.14;34.51;50.90;;
68599;Laerm;18038;50.166;18.908;2023-08-06T22:14:37;35.35;34.45;37.08;;
68599;Laerm;18038;50.166;18.908;2023-08-06T22:17:46;35.45;34.57;39.25;;
68599;Laerm;18038;50.166;18.908;2023-08-06T22:20:56;35.36;34.61;37.25;;
68599;Laerm;18038;50.166;18.908;2023-08-06T22:24:04;35.44;34.55;45.18;;
68599;Laerm;18038;50.166;18.908;2023-08-06T22:27:12;35.51;34.51;37.30;;
68599;Laerm;18038;50.166;18.908;2023-08-06T22:30:20;39.17;34.60;59.29;;
68599;Laerm;18038;50.166;18.908;2023-08-06T22:33:30;35.40;34.61;38.07;;
68599;Laerm;18038;50.166;18.908;2023-08-06T22:36:38;35.38;34.59;37.41;;
68599;Laerm;18038;50.166;18.908;2023-08-06T22:39:49;35.37;34.59;37.02;;
68599;Laerm;18038;50.166;18.908;2023-08-06T22:43:15;35.40;34.60;37.35;;
68599;Laerm;18038;50.166;18.908;2023-08-06T22:46:23;35.37;34.58;36.43;;
68599;Laerm;18038;50.166;18.908;2023-08-06T22:49:33;35.38;34.45;36.77;;
68599;Laerm;18038;50.166;18.908;2023-08-06T22:52:43;35.36;34.60;36.42;;
68599;Laerm;18038;50.166;18.908;2023-08-06T22:55:50;35.39;34.63;37.87;;
68599;Laerm;18038;50.166;18.908;2023-08-06T22:59:12;35.34;34.57;36.50;;
68599;Laerm;18038;50.166;18.908;2023-08-06T23:02:19;38.78;34.59;58.89;;
68599;Laerm;18038;50.166;18.908;2023-08-06T23:05:34;35.35;34.61;36.69;;
68599;Laerm;18038;50.166;18.908;2023-08-06T23:08:41;35.34;34.57;36.88;;
68599;Laerm;18038;50.166;18.908;2023-08-06T23:11:49;35.34;34.56;36.75;;
68599;Laerm;18038;50.166;18.908;2023-08-06T23:14:57;35.34;34.67;36.62;;
68599;Laerm;18038;50.166;18.908;2023-08-06T23:18:10;35.34;34.59;36.70;;
68599;Laerm;18038;50.166;18.908;2023-08-06T23:21:20;35.34;34.66;36.71;;
68599;Laerm;18038;50.166;18.908;2023-08-06T23:24:28;35.37;34.48;36.82;;
68599;Laerm;18038;50.166;18.908;2023-08-06T23:27:37;35.41;34.52;38.69;;
68599;Laerm;18038;50.166;18.908;2023-08-06T23:30:46;38.81;34.59;57.98;;
68599;Laerm;18038;50.166;18.908;2023-08-06T23:33:55;35.59;34.65;51.19;;
68599;Laerm;18038;50.166;18.908;2023-08-06T23:37:06;36.01;34.65;48.60;;
68599;Laerm;18038;50.166;18.908;2023-08-06T23:40:14;35.52;34.63;43.97;;
68599;Laerm;18038;50.166;18.908;2023-08-06T23:43:23;35.43;34.59;36.85;;
68599;Laerm;18038;50.166;18.908;2023-08-06T23:46:30;35.40;34.56;36.58;;
68599;Laerm;18038;50.166;18.908;2023-08-06T23:49:38;35.42;34.55;36.77;;
68599;Laerm;18038;50.166;18.908;2023-08-06T23:52:48;35.40;34.68;36.62;;
68599;Laerm;18038;50.166;18.908;2023-08-06T23:55:56;35.43;34.65;38.66;;
68599;Laerm;18038;50.166;18.908;2023-08-06T23:59:04;35.40;34.62;37.52;;
